Aérodrome :
LOGIN :

S'inscrire | Disclaimer

   EN    FR    IT 

 










Légende :    VFR   VFR Marginal   IFR   IFR Intensif   IFR Très Intensif
Visi : 
Plafond : 
>= 8 km
>= 3000ft
5 à 8 km
1000 à 3000 ft
1500m à 5 km
500 à 1000 ft
800 à 1500m
200 à 500 ft
< 800m
< 200 ft
Symboles :   Orages  Brouillard  Fortes neiges  Fortes précipitations  Vent > 20 kt
SIGMETs :   Divers  Orages  Givrage  Turbulence  Onde Orograph.  Cendres Volcan.






- Altitude de l'aérodrome : 87 ft
- Code IATA : AHO


LIEA - Fertilia Alghero

DERNIER METAR :
  • 110320Z 08005KT 9999 TSRA FEW015 FEW030CB SCT040 17/16 Q1011

METARs EXPIRÉS :
  • 110250Z 07005KT 040V110 9999 -TSRA FEW015 FEW030CB SCT045 17/16 Q1012
  • 110220Z 03004KT 290V060 9999 -TSRA FEW043CB SCT045 17/16 Q1012
  • 110150Z 36006KT 330V030 9999 TS FEW043CB SCT045 17/16 Q1012
  • 110120Z 04009KT 010V080 FEW043CB SCT045 -TSRA 17/16 Q1010

TAF TAF LIEA
Valide du 11 à 00h jusqu'au 12 à 00h UTC


102300Z 1100/1124 06007KT 9999 SCT030
TEMPO 1100/1108 TSRA
BECMG 1107/1109 26016G26KT
TEMPO 1108/1116 SHRA



MET'MAP, la Météo Aéronautique d'un coup d'oeil ! - Copyright ORBIFLY Décembre 2007 - Disclaimer

ORBIFLY MET'MAP TEAM :

Programmation & Développement : Alexandra Zaïnal
Sur une idée originale de : Baudouin d'Aumeries
Assistance à la programmation : Marc-Olivier Méhu
Soutien technique & logistique : Manuel Goepfert

Contact : metmap@orbifly.com




SOURCES & CREDITS :

   NOAA